Aviation Digital Data Service (ADDS)

Output produced by METARs form (0959 UTC 22 May 2015)
found at http://www.aviationweather.gov/adds/metars/
 
KCXY 220956Z AUTO 29005KT 10SM CLR 09/04 A3000 RMK AO2 SLP159 T00890044
KCXY 220856Z AUTO 28006KT 10SM CLR 09/04 A2997 RMK AO2 SLP151 T00940044 53008
KCXY 220756Z AUTO 28009KT 10SM BKN080 11/05 A2996 RMK AO2 SLP147 T01110050
KCXY 220656Z AUTO 27008KT 10SM FEW065 OVC085 11/07 A2995 RMK AO2 SLP143 T01060067
KCXY 220556Z AUTO 26006KT 10SM FEW075 11/07 A2995 RMK AO2 SLP142 60000 T01060067 10133 20106 53000
KCXY 220456Z AUTO 30006KT 10SM SCT075 BKN120 11/08 A2995 RMK AO2 SLP142 T01110078 401440111
KCXY 220356Z AUTO 28006KT 10SM FEW035 BKN055 OVC070 12/08 A2995 RMK AO2 SLP142 T01170078
KCXY 220256Z AUTO 29006KT 10SM FEW029 BKN045 OVC070 12/08 A2995 RMK AO2 SLP142 60000 T01170078 51004
KCXY 220156Z AUTO 28004KT 10SM OVC030 12/08 A2995 RMK AO2 RAB07E24 SLP142 P0000 T01170083
KCXY 220056Z AUTO 30005KT 10SM OVC036 13/07 A2994 RMK AO2 SLP140 T01280072
KCXY 212356Z 28005KT 10SM OVC036 13/07 A2994 RMK AO2 SLP138 T01330067 10144 20133 53005
KCXY 212256Z 26004KT 10SM OVC036 13/06 A2992 RMK AO2 SLP133 T01330061
KCXY 212156Z 28004KT 10SM OVC039 14/07 A2992 RMK AO2 SLP132 T01390067
KCXY 212056Z 00000KT 10SM OVC035 14/05 A2992 RMK AO2 SLP133 T01390050 56017
KCXY 211956Z 10005KT 10SM FEW035 OVC049 14/06 A2992 RMK AO2 SLP134 T01440056
KCXY 211856Z 16005KT 10SM FEW034 BKN050 OVC100 14/06 A2994 RMK AO2 SLP141 T01440056
KCXY 211756Z VRB03KT 10SM OVC040 14/06 A2997 RMK AO2 SLP150 60001 T01390056 10139 20117 58016
KCXY 211656Z VRB05KT 10SM OVC044 13/02 A3000 RMK AO2 SLP159 T01280022
KCXY 211556Z 00000KT 10SM BKN055 OVC100 13/05 A3001 RMK AO2 RAE08 SLP163 P0000 T01330050
KCXY 211456Z 00000KT 10SM -RA OVC085 12/05 A3002 RMK AO2 RAB05 SLP166 P0000 60001 T01220050 58002
KCXY 211356Z 25003KT 10SM OVC050 12/06 A3003 RMK AO2 RAE41 SLP172 P0000 T01170056
KCXY 211256Z 00000KT 10SM -RA OVC065 12/06 A3003 RMK AO2 RAB01 SLP172 P0001 T01170056
KCXY 211156Z 00000KT 10SM OVC075 12/04 A3002 RMK AO2 RAB23E51 SLP168 P0000 60000 T01220044 10128 20117 53005
KCXY 211056Z 09005KT 10SM OVC090 12/04 A3000 RMK AO2 RAB0959E39 SLP161 P0000 T01170039
KCXY 210956Z AUTO 09005KT 10SM OVC090 12/04 A3001 RMK AO2 SLP164 T01220044
KCXY 210856Z AUTO 11004KT 10SM OVC100 12/06 A3001 RMK AO2 SLP163 T01170056 53005
KCXY 210756Z AUTO 06005KT 10SM BKN110 13/04 A2999 RMK AO2 SLP157 T01280044
KCXY 210656Z AUTO 00000KT 10SM FEW100 12/06 A2999 RMK AO2 SLP158 T01170061
KCXY 210556Z AUTO 22003KT 10SM FEW120 12/07 A2999 RMK AO2 SLP158 T01220072 10156 20117 58011
KCXY 210456Z AUTO 00000KT 10SM CLR 13/06 A3001 RMK AO2 SLP163 T01280061 401830117
KCXY 210356Z AUTO 35004KT 10SM CLR 15/03 A3001 RMK AO2 SLP164 T01500028
KCXY 210256Z AUTO 34005KT 10SM CLR 14/04 A3003 RMK AO2 SLP169 T01440039 50005
KCXY 210156Z AUTO 25003KT 10SM CLR 12/06 A3004 RMK AO2 SLP174 T01220056
KCXY 210056Z AUTO 28004KT 10SM CLR 13/03 A3002 RMK AO2 SLP166 T01330028
KCXY 202356Z 29006KT 10SM CLR 16/02 A3001 RMK AO2 SLP164 T01560022 10178 20156 53004
KCXY 202256Z 32007KT 10SM CLR 17/02 A3000 RMK AO2 SLP159 T01670017